createdAt,value
2019-03-20T00:00:43.771Z,101943.95
2019-03-20T00:03:11.825Z,101937.69
2019-03-20T00:05:39.984Z,101941.52
2019-03-20T00:08:07.781Z,101945.64
2019-03-20T00:10:35.576Z,101948.68
2019-03-20T00:13:03.470Z,101955.25
2019-03-20T00:15:31.241Z,101946.41
2019-03-20T00:17:59.038Z,101952.87
2019-03-20T00:20:26.842Z,101948.59
2019-03-20T00:22:54.671Z,101943.20
2019-03-20T00:25:22.411Z,101941.42
2019-03-20T00:27:50.743Z,101940.63
2019-03-20T00:30:18.577Z,101936.77
2019-03-20T00:32:46.463Z,101940.83
2019-03-20T00:35:14.201Z,101937.45
2019-03-20T00:37:42.073Z,101934.64
2019-03-20T00:40:11.118Z,101935.73
2019-03-20T00:42:38.871Z,101934.13
2019-03-20T00:45:08.500Z,101939.99
2019-03-20T00:47:36.256Z,101936.42
2019-03-20T00:50:04.829Z,101938.83
2019-03-20T00:52:32.573Z,101938.70
2019-03-20T00:55:00.409Z,101935.11
2019-03-20T00:57:28.245Z,101937.64
2019-03-20T00:59:56.050Z,101939.89
2019-03-20T01:02:23.850Z,101935.75
2019-03-20T01:04:51.601Z,101932.44
2019-03-20T01:07:19.357Z,101935.73
2019-03-20T01:09:47.115Z,101935.81
2019-03-20T01:12:14.891Z,101932.58
2019-03-20T01:14:42.663Z,101934.11
2019-03-20T01:17:10.403Z,101931.64
2019-03-20T01:19:38.205Z,101935.70
2019-03-20T01:22:07.604Z,101935.98
2019-03-20T01:24:35.353Z,101933.26
2019-03-20T01:27:03.245Z,101930.50
2019-03-20T01:29:31.018Z,101928.25
2019-03-20T01:31:58.778Z,101927.25
2019-03-20T01:34:26.578Z,101937.73
2019-03-20T01:36:54.330Z,101942.21
2019-03-20T01:39:22.180Z,101941.16
2019-03-20T01:41:49.992Z,101938.48
2019-03-20T01:44:17.765Z,101943.50
2019-03-20T01:46:45.516Z,101938.95
2019-03-20T01:49:13.314Z,101932.14
2019-03-20T01:51:41.038Z,101936.77
2019-03-20T01:54:08.815Z,101938.86
2019-03-20T01:56:36.619Z,101937.15
2019-03-20T01:59:04.413Z,101939.66
2019-03-20T02:01:32.185Z,101945.22
2019-03-20T02:03:59.920Z,101946.32
2019-03-20T02:06:27.686Z,101943.93
2019-03-20T02:08:55.424Z,101944.20
2019-03-20T02:11:23.224Z,101945.61
2019-03-20T02:13:51.016Z,101954.12
2019-03-20T02:16:18.880Z,101951.77
2019-03-20T02:18:46.618Z,101950.57
2019-03-20T02:21:14.406Z,101950.71
2019-03-20T02:23:42.172Z,101953.72
2019-03-20T02:26:09.937Z,101953.62
2019-03-20T02:28:37.668Z,101952.73
2019-03-20T02:31:05.540Z,101953.92
2019-03-20T02:33:33.325Z,101963.63
2019-03-20T02:36:01.114Z,101968.72
2019-03-20T02:38:28.849Z,101956.39
2019-03-20T02:40:56.616Z,101961.00
2019-03-20T02:43:24.402Z,101957.99
2019-03-20T02:45:52.195Z,101960.69
2019-03-20T02:48:19.926Z,101965.09
2019-03-20T02:50:47.706Z,101957.44
2019-03-20T02:53:15.447Z,101962.19
2019-03-20T02:55:43.213Z,101963.31
2019-03-20T02:58:11.250Z,101968.53
2019-03-20T03:00:39.405Z,101968.80
2019-03-20T03:03:07.544Z,101971.84
2019-03-20T03:05:35.334Z,101965.17
2019-03-20T03:08:03.249Z,101972.69
2019-03-20T03:10:31.260Z,101976.21
2019-03-20T03:12:59.059Z,101973.81
2019-03-20T03:15:26.817Z,101977.57
2019-03-20T03:17:54.967Z,101972.13
2019-03-20T03:20:22.731Z,101974.45
2019-03-20T03:22:50.537Z,101981.27
2019-03-20T03:25:18.292Z,101976.07
2019-03-20T03:27:46.097Z,101985.53
2019-03-20T03:30:13.996Z,101977.34
2019-03-20T03:32:41.830Z,101982.34
2019-03-20T03:35:15.508Z,101980.42
2019-03-20T03:37:39.367Z,101980.65
2019-03-20T03:40:08.101Z,101982.95
2019-03-20T03:42:35.892Z,101983.08
2019-03-20T03:45:04.808Z,101980.32
2019-03-20T03:47:32.686Z,101993.81
2019-03-20T03:50:00.599Z,101997.14
2019-03-20T03:52:28.516Z,101999.09
2019-03-20T03:54:56.267Z,102001.66
2019-03-20T03:57:24.446Z,102007.85
2019-03-20T03:59:52.209Z,102006.87
2019-03-20T04:02:20.269Z,101997.41
2019-03-20T04:04:48.004Z,102002.95
2019-03-20T04:07:15.774Z,102000.20
2019-03-20T04:09:43.583Z,102009.52
2019-03-20T04:12:11.454Z,102005.80
2019-03-20T04:14:39.254Z,101999.03
2019-03-20T04:17:23.673Z,102003.75
2019-03-20T04:19:51.486Z,101998.28
2019-03-20T04:22:19.373Z,102005.20
2019-03-20T04:24:47.107Z,102008.80
2019-03-20T04:27:15.015Z,102012.20
2019-03-20T04:29:42.741Z,102012.33
2019-03-20T04:32:10.509Z,102013.92
2019-03-20T04:34:38.261Z,102022.03
2019-03-20T04:37:06.069Z,102023.02
2019-03-20T04:39:33.842Z,102021.05
2019-03-20T04:42:02.381Z,102022.38
2019-03-20T04:44:30.213Z,102022.77
2019-03-20T04:46:57.966Z,102023.97
2019-03-20T04:49:25.748Z,102028.69
2019-03-20T04:51:53.484Z,102027.95
2019-03-20T04:54:21.258Z,102027.70
2019-03-20T04:56:48.997Z,102019.16
2019-03-20T04:59:16.774Z,102020.11
2019-03-20T05:01:44.558Z,102020.11
2019-03-20T05:04:12.373Z,102021.56
2019-03-20T05:06:40.125Z,102019.51
2019-03-20T05:09:07.940Z,102022.93
2019-03-20T05:11:35.709Z,102029.93
2019-03-20T05:14:03.496Z,102036.93
2019-03-20T05:16:31.278Z,102039.46
2019-03-20T05:18:59.076Z,102037.31
2019-03-20T05:21:26.881Z,102037.66
2019-03-20T05:23:54.662Z,102034.27
2019-03-20T05:26:22.425Z,102046.37
2019-03-20T05:28:50.222Z,102045.03
2019-03-20T05:31:17.972Z,102037.91
2019-03-20T05:33:45.791Z,102036.08
2019-03-20T05:36:13.750Z,102036.23
2019-03-20T05:38:41.555Z,102050.01
2019-03-20T05:41:09.428Z,102048.55
2019-03-20T05:43:37.258Z,102060.39
2019-03-20T05:46:05.054Z,102061.48
2019-03-20T05:48:32.934Z,102068.25
2019-03-20T05:51:02.968Z,102073.83
2019-03-20T05:53:30.924Z,102073.58
2019-03-20T05:55:58.691Z,102077.57
2019-03-20T05:58:26.427Z,102080.93
2019-03-20T06:00:54.264Z,102072.38
2019-03-20T06:03:22.094Z,102080.45
2019-03-20T06:05:49.911Z,102084.06
2019-03-20T06:08:17.657Z,102089.39
2019-03-20T06:10:45.442Z,102094.97
2019-03-20T06:13:13.209Z,102090.47
2019-03-20T06:15:41.006Z,102087.80
2019-03-20T06:18:10.825Z,102089.12
2019-03-20T06:20:38.622Z,102091.88
2019-03-20T06:23:06.661Z,102099.91
2019-03-20T06:25:34.463Z,102100.13
2019-03-20T06:28:02.226Z,102102.78
2019-03-20T06:30:30.003Z,102106.64
2019-03-20T06:32:59.781Z,102112.05
2019-03-20T06:35:27.445Z,102111.05
2019-03-20T06:37:55.270Z,102112.98
2019-03-20T06:40:23.098Z,102116.11
2019-03-20T06:42:50.975Z,102113.91
2019-03-20T06:45:18.731Z,102116.17
2019-03-20T06:47:46.480Z,102122.94
2019-03-20T06:50:14.530Z,102120.94
2019-03-20T06:52:42.339Z,102119.57
2019-03-20T06:55:10.293Z,102127.21
2019-03-20T06:57:38.075Z,102125.69
2019-03-20T07:01:01.309Z,102120.85
2019-03-20T07:03:47.631Z,102130.80
2019-03-20T07:06:42.723Z,102126.23
2019-03-20T07:09:40.368Z,102127.64
2019-03-20T07:12:08.143Z,102125.25
2019-03-20T07:14:35.966Z,102126.86
2019-03-20T07:17:03.773Z,102132.38
2019-03-20T07:19:31.591Z,102126.45
2019-03-20T07:21:59.414Z,102134.08
2019-03-20T07:24:27.270Z,102144.99
2019-03-20T07:26:55.102Z,102143.96
2019-03-20T07:29:22.953Z,102141.02
2019-03-20T07:31:50.797Z,102146.25
2019-03-20T07:34:21.082Z,102148.09
2019-03-20T07:36:49.119Z,102143.71
2019-03-20T07:39:16.857Z,102147.09
2019-03-20T07:41:44.664Z,102152.69
2019-03-20T07:44:12.441Z,102155.23
2019-03-20T07:46:40.242Z,102153.83
2019-03-20T07:49:08.114Z,102158.90
2019-03-20T07:51:35.956Z,102162.77
2019-03-20T07:54:03.815Z,102157.50
2019-03-20T07:56:31.588Z,102157.05
2019-03-20T07:58:59.466Z,102162.76
2019-03-20T08:01:27.256Z,102163.61
2019-03-20T08:03:55.036Z,102173.39
2019-03-20T08:06:22.794Z,102163.59
2019-03-20T08:08:50.656Z,102165.92
2019-03-20T08:11:19.934Z,102159.78
2019-03-20T08:13:47.772Z,102168.98
2019-03-20T08:16:15.550Z,102168.13
2019-03-20T08:18:43.369Z,102168.95
2019-03-20T08:21:11.432Z,102173.00
2019-03-20T08:23:39.246Z,102176.64
2019-03-20T08:26:07.809Z,102175.84
2019-03-20T08:28:35.565Z,102174.16
2019-03-20T08:31:03.402Z,102178.39
2019-03-20T08:33:31.145Z,102178.94
2019-03-20T08:35:58.915Z,102174.32
2019-03-20T08:38:26.710Z,102175.91
2019-03-20T08:40:54.754Z,102172.49
2019-03-20T08:43:22.614Z,102174.91
2019-03-20T08:45:50.386Z,102174.23
2019-03-20T08:48:18.185Z,102176.23
2019-03-20T08:50:45.953Z,102184.09
2019-03-20T08:53:13.723Z,102179.71
2019-03-20T08:55:41.525Z,102180.79
2019-03-20T08:58:09.318Z,102172.87
2019-03-20T09:00:37.141Z,102170.20
2019-03-20T09:03:04.929Z,102179.86
2019-03-20T09:05:32.759Z,102169.16
2019-03-20T09:08:00.553Z,102178.66
2019-03-20T09:10:28.330Z,102173.17
2019-03-20T09:12:56.117Z,102180.00
2019-03-20T09:15:23.908Z,102176.17
2019-03-20T09:17:51.704Z,102177.03
2019-03-20T09:20:19.503Z,102172.35
2019-03-20T09:22:47.274Z,102180.37
2019-03-20T09:25:16.450Z,102183.08
2019-03-20T09:27:44.244Z,102187.63
2019-03-20T09:30:15.970Z,102194.41
2019-03-20T09:32:43.738Z,102185.74
2019-03-20T09:35:11.598Z,102186.89
2019-03-20T09:37:39.377Z,102179.08
2019-03-20T09:40:09.453Z,102175.03
2019-03-20T09:42:37.224Z,102167.89
2019-03-20T09:45:06.706Z,102178.36
2019-03-20T09:47:34.458Z,102167.77
2019-03-20T09:50:02.274Z,102160.91
2019-03-20T09:52:30.052Z,102169.61
2019-03-20T09:54:58.119Z,102155.40
2019-03-20T09:57:25.854Z,102163.20
2019-03-20T09:59:53.655Z,102159.55
2019-03-20T10:02:21.740Z,102163.42
2019-03-20T10:04:49.526Z,102164.89
2019-03-20T10:07:17.315Z,102161.23
2019-03-20T10:09:45.212Z,102157.43
2019-03-20T10:12:13.054Z,102168.27
2019-03-20T10:14:40.884Z,102162.91
2019-03-20T10:17:10.861Z,102168.11
2019-03-20T10:19:38.641Z,102162.91
2019-03-20T10:22:06.421Z,102160.06
2019-03-20T10:24:36.017Z,102170.03
2019-03-20T10:27:03.836Z,102166.08
2019-03-20T10:29:31.721Z,102167.73
2019-03-20T10:31:59.515Z,102159.35
2019-03-20T10:34:27.277Z,102157.19
2019-03-20T10:36:55.048Z,102145.77
2019-03-20T10:39:22.825Z,102158.86
2019-03-20T10:41:50.631Z,102158.30
2019-03-20T10:44:18.419Z,102152.95
2019-03-20T10:46:46.197Z,102150.66
2019-03-20T10:49:13.973Z,102150.48
2019-03-20T10:51:41.795Z,102147.63
2019-03-20T10:54:09.566Z,102152.37
2019-03-20T10:56:37.362Z,102149.61
2019-03-20T10:59:05.941Z,102156.91
2019-03-20T11:01:42.143Z,102154.96
2019-03-20T11:04:03.413Z,102153.47
2019-03-20T11:06:32.221Z,102139.97
2019-03-20T11:09:00.011Z,102150.37
2019-03-20T11:11:27.847Z,102159.92
2019-03-20T11:13:55.594Z,102164.08
2019-03-20T11:16:23.672Z,102165.45
2019-03-20T11:18:51.548Z,102163.16
2019-03-20T11:21:22.216Z,102174.55
2019-03-20T11:23:49.922Z,102168.48
2019-03-20T11:26:17.719Z,102153.99
2019-03-20T11:28:45.542Z,102143.00
2019-03-20T11:31:13.385Z,102137.07
2019-03-20T11:33:41.250Z,102140.73
2019-03-20T11:36:09.076Z,102124.53
2019-03-20T11:38:36.872Z,102127.55
2019-03-20T11:41:04.731Z,102123.72
2019-03-20T11:43:32.497Z,102120.20
2019-03-20T11:46:00.259Z,102128.07
2019-03-20T11:48:28.106Z,102121.01
2019-03-20T11:50:55.842Z,102115.20
2019-03-20T11:53:23.588Z,102113.61
2019-03-20T11:55:51.398Z,102114.52
2019-03-20T11:58:19.260Z,102110.10
2019-03-20T12:00:47.106Z,102113.92
2019-03-20T12:03:15.005Z,102114.48
2019-03-20T12:05:42.740Z,102106.08
2019-03-20T12:08:10.531Z,102108.59
2019-03-20T12:10:38.292Z,102105.45
2019-03-20T12:13:06.083Z,102099.69
2019-03-20T12:15:33.845Z,102092.96
2019-03-20T12:18:01.651Z,102086.06
2019-03-20T12:20:29.459Z,102079.42
2019-03-20T12:22:57.243Z,102080.87
2019-03-20T12:25:28.325Z,102073.48
2019-03-20T12:27:56.311Z,102076.67
2019-03-20T12:30:26.361Z,102074.92
2019-03-20T12:32:54.188Z,102077.23
2019-03-20T12:35:22.323Z,102075.38
2019-03-20T12:37:50.227Z,102071.03
2019-03-20T12:40:23.587Z,102063.97
2019-03-20T12:42:53.049Z,102062.95
2019-03-20T12:45:23.617Z,102068.34
2019-03-20T12:47:51.719Z,102059.80
2019-03-20T12:50:19.541Z,102054.59
2019-03-20T12:52:47.326Z,102055.84
2019-03-20T12:55:15.986Z,102052.73
2019-03-20T12:57:43.743Z,102057.00
2019-03-20T13:00:17.792Z,102054.66
2019-03-20T13:02:45.572Z,102048.17
2019-03-20T13:05:14.229Z,102051.28
2019-03-20T13:07:42.085Z,102048.47
2019-03-20T13:10:12.724Z,102050.78
2019-03-20T13:12:41.528Z,102048.03
2019-03-20T13:15:17.973Z,102045.87
2019-03-20T13:17:46.091Z,102050.39
2019-03-20T13:20:13.957Z,102055.91
2019-03-20T13:22:41.894Z,102046.14
2019-03-20T13:25:11.032Z,102048.91
2019-03-20T13:27:38.846Z,102052.81
2019-03-20T13:30:20.478Z,102045.00
2019-03-20T13:32:47.424Z,102056.15
2019-03-20T13:35:15.324Z,102049.08
2019-03-20T13:37:43.106Z,102051.97
2019-03-20T13:40:14.692Z,102047.66
2019-03-20T13:42:40.784Z,102048.42
2019-03-20T13:45:11.984Z,102040.48
2019-03-20T13:47:39.779Z,102043.87
2019-03-20T13:50:09.692Z,102035.33
2019-03-20T13:52:37.460Z,102045.30
2019-03-20T13:55:05.699Z,102048.02
2019-03-20T13:57:33.507Z,102057.69
2019-03-20T14:00:01.319Z,102059.60
2019-03-20T14:02:29.139Z,102055.45
2019-03-20T14:04:56.889Z,102053.86
2019-03-20T14:07:24.648Z,102052.05
2019-03-20T14:09:52.447Z,102061.58
2019-03-20T14:12:20.183Z,102047.44
2019-03-20T14:14:48.026Z,102047.02
2019-03-20T14:17:15.829Z,102042.83
2019-03-20T14:19:43.601Z,102038.14
2019-03-20T14:22:11.381Z,102030.56
2019-03-20T14:24:39.147Z,102045.77
2019-03-20T14:27:06.926Z,102036.11
2019-03-20T14:29:35.490Z,102037.23
2019-03-20T14:32:03.668Z,102031.16
2019-03-20T14:34:31.436Z,102028.07
2019-03-20T14:36:59.209Z,102028.05
2019-03-20T14:39:26.957Z,102014.13
2019-03-20T14:41:54.735Z,102010.74
2019-03-20T14:44:22.509Z,102021.64
2019-03-20T14:46:50.285Z,102017.98
2019-03-20T14:49:18.037Z,102012.91
2019-03-20T14:51:45.812Z,102008.58
2019-03-20T14:54:14.959Z,102012.70
2019-03-20T14:56:42.761Z,102009.31
2019-03-20T14:59:10.500Z,102011.95
2019-03-20T15:01:38.375Z,102006.60
2019-03-20T15:04:06.145Z,102013.27
2019-03-20T15:06:33.985Z,102015.69
2019-03-20T15:09:01.761Z,102020.56
2019-03-20T15:11:29.539Z,102013.37
2019-03-20T15:13:59.578Z,102012.06
2019-03-20T15:16:27.344Z,102013.88
2019-03-20T15:18:55.115Z,102025.05
2019-03-20T15:21:22.881Z,102028.48
2019-03-20T15:23:50.680Z,102022.89
2019-03-20T15:26:18.736Z,102023.50
2019-03-20T15:28:46.511Z,102022.02
2019-03-20T15:31:14.311Z,102026.80
2019-03-20T15:33:42.079Z,102024.86
2019-03-20T15:36:10.511Z,102036.72
2019-03-20T15:38:38.476Z,102031.42
2019-03-20T15:41:06.231Z,102031.73
2019-03-20T15:43:34.014Z,102030.59
2019-03-20T15:46:01.799Z,102032.80
2019-03-20T15:48:29.556Z,102014.88
2019-03-20T15:50:57.316Z,102023.13
2019-03-20T15:53:25.075Z,102021.25
2019-03-20T15:55:52.812Z,102021.03
2019-03-20T15:58:20.587Z,102018.48
2019-03-20T16:00:48.359Z,102015.81
2019-03-20T16:03:16.877Z,102015.38
2019-03-20T16:05:44.643Z,102014.91
2019-03-20T16:08:12.424Z,102012.70
2019-03-20T16:10:40.212Z,102013.67
2019-03-20T16:13:08.037Z,102013.30
2019-03-20T16:15:35.789Z,102013.56
2019-03-20T16:18:03.689Z,102021.47
2019-03-20T16:20:31.489Z,102016.59
2019-03-20T16:22:59.288Z,102024.45
2019-03-20T16:25:27.060Z,102022.89
2019-03-20T16:27:54.806Z,102027.06
2019-03-20T16:30:22.617Z,102026.31
2019-03-20T16:32:50.414Z,102026.68
2019-03-20T16:35:18.155Z,102028.43
2019-03-20T16:37:45.899Z,102027.23
2019-03-20T16:40:16.673Z,102035.88
2019-03-20T16:42:44.419Z,102033.31
2019-03-20T16:45:15.965Z,102030.41
2019-03-20T16:47:43.815Z,102028.87
2019-03-20T16:50:12.587Z,102032.42
2019-03-20T16:52:40.367Z,102017.92
2019-03-20T16:55:09.365Z,102022.58
2019-03-20T16:57:37.145Z,102021.86
2019-03-20T17:00:06.909Z,102015.34
2019-03-20T17:02:34.681Z,102017.17
2019-03-20T17:05:02.736Z,102023.09
2019-03-20T17:07:30.491Z,102026.05
2019-03-20T17:09:58.306Z,102026.75
2019-03-20T17:12:26.126Z,102029.74
2019-03-20T17:14:53.916Z,102035.27
2019-03-20T17:17:21.788Z,102037.64
2019-03-20T17:19:50.264Z,102039.48
2019-03-20T17:22:18.052Z,102036.63
2019-03-20T17:24:45.823Z,102043.54
2019-03-20T17:27:13.588Z,102041.70
2019-03-20T17:29:41.350Z,102041.96
2019-03-20T17:32:09.178Z,102047.22
2019-03-20T17:34:36.958Z,102039.30
2019-03-20T17:37:04.732Z,102038.34
2019-03-20T17:39:32.484Z,102038.41
2019-03-20T17:42:00.260Z,102040.86
2019-03-20T17:44:28.070Z,102046.34
2019-03-20T17:46:55.830Z,102052.05
2019-03-20T17:49:23.680Z,102053.80
2019-03-20T17:51:51.578Z,102060.95
2019-03-20T17:54:19.308Z,102056.43
2019-03-20T17:56:50.168Z,102064.13
2019-03-20T17:59:17.752Z,102059.86
2019-03-20T18:01:45.617Z,102066.89
2019-03-20T18:04:13.397Z,102062.38
2019-03-20T18:06:41.210Z,102061.19
2019-03-20T18:09:09.160Z,102060.37
2019-03-20T18:11:46.836Z,102060.89
2019-03-20T18:14:06.694Z,102060.89
2019-03-20T18:16:34.519Z,102065.98
2019-03-20T18:19:02.324Z,102069.35
2019-03-20T18:21:30.107Z,102070.22
2019-03-20T18:23:57.835Z,102077.75
2019-03-20T18:26:25.618Z,102080.31
2019-03-20T18:28:53.387Z,102077.01
2019-03-20T18:31:21.215Z,102082.30
2019-03-20T18:33:48.967Z,102084.64
2019-03-20T18:36:16.768Z,102084.82
2019-03-20T18:38:44.558Z,102093.14
2019-03-20T18:41:12.405Z,102098.86
2019-03-20T18:43:40.160Z,102097.02
2019-03-20T18:46:07.931Z,102100.24
2019-03-20T18:48:36.252Z,102103.31
2019-03-20T18:51:04.273Z,102099.41
2019-03-20T18:53:32.123Z,102100.24
2019-03-20T18:55:59.998Z,102101.11
2019-03-20T18:58:27.824Z,102108.21
2019-03-20T19:00:55.658Z,102109.38
2019-03-20T19:03:23.553Z,102105.06
2019-03-20T19:05:56.680Z,102108.64
2019-03-20T19:08:24.611Z,102109.14
2019-03-20T19:10:52.454Z,102105.45
2019-03-20T19:13:20.374Z,102105.13
2019-03-20T19:15:48.135Z,102104.45
2019-03-20T19:18:15.970Z,102101.93
2019-03-20T19:20:43.743Z,102111.06
2019-03-20T19:23:11.510Z,102108.86
2019-03-20T19:25:39.288Z,102112.93
2019-03-20T19:28:07.100Z,102113.61
2019-03-20T19:30:35.003Z,102118.15
2019-03-20T19:33:03.039Z,102123.88
2019-03-20T19:35:30.802Z,102116.48
2019-03-20T19:37:58.606Z,102117.98
2019-03-20T19:40:26.443Z,102114.63
2019-03-20T19:42:54.283Z,102118.31
2019-03-20T19:45:22.051Z,102115.47
2019-03-20T19:47:49.850Z,102116.48
2019-03-20T19:50:17.642Z,102119.50
2019-03-20T19:52:45.645Z,102117.81
2019-03-20T19:55:13.508Z,102123.36
2019-03-20T19:57:41.313Z,102116.48
2019-03-20T20:00:12.620Z,102122.02
2019-03-20T20:02:40.603Z,102117.48
2019-03-20T20:05:15.605Z,102119.36
2019-03-20T20:07:38.621Z,102115.30
2019-03-20T20:10:07.398Z,102116.15
2019-03-20T20:12:35.151Z,102117.15
2019-03-20T20:15:03.451Z,102111.26
2019-03-20T20:17:31.200Z,102117.31
2019-03-20T20:19:58.979Z,102122.03
2019-03-20T20:22:26.772Z,102118.85
2019-03-20T20:24:54.599Z,102124.06
2019-03-20T20:27:22.424Z,102123.23
2019-03-20T20:29:50.337Z,102124.56
2019-03-20T20:32:18.898Z,102124.58
2019-03-20T20:34:46.799Z,102120.84
2019-03-20T20:37:14.707Z,102123.54
2019-03-20T20:39:42.497Z,102121.87
2019-03-20T20:42:10.334Z,102129.09
2019-03-20T20:44:38.122Z,102131.48
2019-03-20T20:47:06.174Z,102124.22
2019-03-20T20:49:33.992Z,102122.52
2019-03-20T20:52:02.826Z,102121.70
2019-03-20T20:54:30.613Z,102114.13
2019-03-20T20:56:58.423Z,102115.98
2019-03-20T20:59:26.245Z,102121.04
2019-03-20T21:01:54.059Z,102121.50
2019-03-20T21:04:21.953Z,102125.88
2019-03-20T21:06:49.840Z,102127.88
2019-03-20T21:09:17.637Z,102127.70
2019-03-20T21:11:45.461Z,102129.08
2019-03-20T21:14:13.258Z,102125.05
2019-03-20T21:16:42.753Z,102124.69
2019-03-20T21:19:31.765Z,102127.03
2019-03-20T21:22:49.327Z,102122.83
2019-03-20T21:25:21.940Z,102128.38
2019-03-20T21:29:06.369Z,102130.71
2019-03-20T21:31:42.869Z,102136.62
2019-03-20T21:35:20.461Z,102140.83
2019-03-20T21:38:05.762Z,102135.25
2019-03-20T21:41:33.992Z,102133.50
2019-03-20T21:44:54.566Z,102138.22
2019-03-20T21:47:33.939Z,102133.52
2019-03-20T21:51:20.887Z,102136.20
2019-03-20T21:54:58.540Z,102136.02
2019-03-20T21:58:24.593Z,102149.60
2019-03-20T22:01:46.596Z,102157.31
2019-03-20T22:04:15.286Z,102166.45
2019-03-20T22:07:12.107Z,102163.62
2019-03-20T22:10:47.517Z,102158.23
2019-03-20T22:13:45.658Z,102160.28
2019-03-20T22:17:27.845Z,102160.64
2019-03-20T22:20:30.835Z,102163.17
2019-03-20T22:23:55.775Z,102166.89
2019-03-20T22:27:03.290Z,102167.23
2019-03-20T22:29:31.878Z,102172.13
2019-03-20T22:33:08.653Z,102174.30
2019-03-20T22:36:04.166Z,102178.16
2019-03-20T22:39:40.967Z,102176.84
2019-03-20T22:42:22.758Z,102179.19
2019-03-20T22:45:44.973Z,102186.94
2019-03-20T22:48:55.379Z,102184.91
2019-03-20T22:51:58.674Z,102188.80
2019-03-20T22:55:14.505Z,102185.43
2019-03-20T22:58:40.419Z,102199.08
2019-03-20T23:01:10.230Z,102196.90
2019-03-20T23:03:47.507Z,102203.95
2019-03-20T23:06:16.069Z,102204.30
2019-03-20T23:08:44.673Z,102211.02
2019-03-20T23:11:13.237Z,102209.19
2019-03-20T23:13:42.018Z,102214.73
2019-03-20T23:16:12.421Z,102210.53
2019-03-20T23:18:40.991Z,102222.12
2019-03-20T23:21:09.577Z,102221.95
2019-03-20T23:23:39.845Z,102227.16
2019-03-20T23:26:08.695Z,102217.39
2019-03-20T23:28:37.232Z,102217.75
2019-03-20T23:31:05.804Z,102227.66
2019-03-20T23:33:34.344Z,102220.57
2019-03-20T23:36:03.070Z,102221.78
2019-03-20T23:38:31.646Z,102222.59
2019-03-20T23:41:00.216Z,102220.41
2019-03-20T23:43:28.778Z,102208.64
2019-03-20T23:45:57.323Z,102220.08
2019-03-20T23:48:43.932Z,102216.89
2019-03-20T23:51:15.496Z,102219.41
2019-03-20T23:53:48.291Z,102219.56
2019-03-20T23:56:16.873Z,102217.73
2019-03-20T23:58:45.408Z,102218.75
